createdAt,value
2022-10-20T00:00:56.304Z,1.52
2022-10-20T00:03:59.300Z,1.20
2022-10-20T00:07:01.864Z,1.67
2022-10-20T00:10:05.274Z,1.30
2022-10-20T00:13:07.993Z,1.30
2022-10-20T00:16:11.199Z,1.48
2022-10-20T00:19:13.848Z,1.05
2022-10-20T00:22:16.876Z,1.85
2022-10-20T00:25:19.293Z,1.60
2022-10-20T00:28:22.036Z,1.47
2022-10-20T00:31:25.719Z,1.27
2022-10-20T00:34:28.559Z,1.25
2022-10-20T00:37:31.165Z,1.50
2022-10-20T00:40:35.094Z,1.48
2022-10-20T00:43:49.472Z,1.23
2022-10-20T00:46:52.701Z,1.42
2022-10-20T00:49:55.994Z,1.48
2022-10-20T00:52:59.784Z,1.40
2022-10-20T00:56:02.622Z,1.33
2022-10-20T00:59:05.594Z,1.10
2022-10-20T01:02:09.077Z,1.55
2022-10-20T01:05:13.229Z,1.60
2022-10-20T01:08:15.829Z,1.40
2022-10-20T01:11:21.730Z,1.35
2022-10-20T01:14:39.004Z,1.27
2022-10-20T01:17:57.423Z,1.20
2022-10-20T01:21:08.101Z,1.95
2022-10-20T01:24:17.027Z,2.30
2022-10-20T01:27:34.661Z,1.77
2022-10-20T01:30:46.046Z,1.50
2022-10-20T01:34:10.418Z,1.50
2022-10-20T01:37:49.077Z,1.73
2022-10-20T01:41:02.882Z,1.60
2022-10-20T01:44:09.409Z,1.40
2022-10-20T01:47:12.248Z,1.10
2022-10-20T01:50:17.075Z,1.10
2022-10-20T01:53:20.303Z,1.20
2022-10-20T01:56:47.270Z,1.10
2022-10-20T02:00:00.725Z,1.12
2022-10-20T02:03:04.557Z,1.20
2022-10-20T02:06:19.539Z,1.10
2022-10-20T02:09:48.048Z,1.10
2022-10-20T02:12:55.473Z,1.37
2022-10-20T02:16:00.885Z,1.37
2022-10-20T02:19:06.002Z,1.50
2022-10-20T02:22:11.218Z,1.50
2022-10-20T02:25:14.314Z,1.50
2022-10-20T02:28:17.711Z,1.60
2022-10-20T02:31:20.983Z,1.30
2022-10-20T02:34:26.271Z,1.60
2022-10-20T02:37:29.163Z,1.58
2022-10-20T02:40:33.354Z,1.25
2022-10-20T02:43:36.427Z,1.27
2022-10-20T02:46:38.963Z,2.00
2022-10-20T02:49:41.856Z,2.10
2022-10-20T02:52:44.486Z,2.20
2022-10-20T02:55:47.484Z,3.67
2022-10-20T02:58:50.369Z,2.90
2022-10-20T03:01:53.439Z,1.98
2022-10-20T03:04:56.003Z,2.00
2022-10-20T03:07:58.824Z,1.90
2022-10-20T03:11:02.981Z,1.70
2022-10-20T03:14:05.843Z,1.83
2022-10-20T03:17:08.865Z,1.70
2022-10-20T03:20:12.110Z,1.80
2022-10-20T03:23:17.816Z,1.77
2022-10-20T03:26:22.909Z,1.60
2022-10-20T03:29:25.365Z,1.52
2022-10-20T03:32:28.274Z,1.80
2022-10-20T03:35:30.816Z,1.63
2022-10-20T03:38:33.729Z,1.80
2022-10-20T03:41:37.373Z,1.70
2022-10-20T03:44:40.595Z,1.70
2022-10-20T03:47:43.042Z,1.58
2022-10-20T03:50:49.243Z,1.40
2022-10-20T03:53:51.718Z,1.52
2022-10-20T03:56:54.520Z,1.50
2022-10-20T03:59:59.351Z,1.65
2022-10-20T04:03:02.229Z,1.50
2022-10-20T04:06:05.224Z,1.53
2022-10-20T04:09:07.911Z,1.40
2022-10-20T04:12:10.784Z,2.15
2022-10-20T04:15:13.717Z,2.33
2022-10-20T04:18:16.615Z,2.00
2022-10-20T04:21:19.294Z,2.00
2022-10-20T04:24:22.156Z,1.73
2022-10-20T04:27:24.801Z,1.20
2022-10-20T04:30:33.355Z,1.83
2022-10-20T04:33:36.137Z,1.10
2022-10-20T04:36:38.921Z,1.27
2022-10-20T04:39:41.472Z,1.33
2022-10-20T04:42:44.370Z,1.50
2022-10-20T04:45:46.875Z,1.20
2022-10-20T04:48:49.655Z,1.30
2022-10-20T04:51:52.225Z,1.20
2022-10-20T04:54:55.031Z,1.45
2022-10-20T04:57:57.678Z,1.05
2022-10-20T05:01:03.518Z,0.93
2022-10-20T05:04:06.138Z,0.98
2022-10-20T05:07:08.988Z,1.00
2022-10-20T05:10:11.934Z,1.27
2022-10-20T05:13:14.716Z,1.17
2022-10-20T05:16:17.723Z,0.90
2022-10-20T05:19:20.626Z,1.10
2022-10-20T05:22:23.155Z,1.00
2022-10-20T05:25:36.200Z,1.00
2022-10-20T05:28:40.397Z,1.20
2022-10-20T05:31:44.063Z,1.30
2022-10-20T05:34:46.758Z,1.08
2022-10-20T05:37:49.611Z,1.07
2022-10-20T05:41:16.997Z,1.20
2022-10-20T05:44:19.848Z,1.20
2022-10-20T05:47:22.472Z,1.27
2022-10-20T05:50:25.732Z,1.60
2022-10-20T05:53:28.311Z,1.60
2022-10-20T05:56:31.891Z,1.33
2022-10-20T05:59:34.500Z,1.40
2022-10-20T06:02:38.022Z,1.02
2022-10-20T06:05:41.220Z,1.73
2022-10-20T06:08:43.869Z,1.47
2022-10-20T06:11:48.172Z,1.20
2022-10-20T06:14:50.700Z,1.25
2022-10-20T06:17:53.612Z,1.10
2022-10-20T06:21:05.753Z,1.20
2022-10-20T06:24:10.024Z,1.10
2022-10-20T06:27:12.628Z,1.30
2022-10-20T06:30:15.803Z,1.30
2022-10-20T06:33:18.352Z,1.40
2022-10-20T06:36:22.472Z,1.10
2022-10-20T06:39:25.511Z,1.20
2022-10-20T06:42:28.741Z,1.10
2022-10-20T06:45:31.274Z,1.42
2022-10-20T06:48:35.170Z,1.02
2022-10-20T06:51:40.824Z,1.40
2022-10-20T06:54:43.820Z,1.47
2022-10-20T06:57:46.349Z,1.60
2022-10-20T07:00:58.641Z,1.42
2022-10-20T07:04:04.027Z,1.00
2022-10-20T07:07:06.914Z,1.27
2022-10-20T07:10:09.641Z,1.27
2022-10-20T07:13:12.611Z,1.02
2022-10-20T07:16:17.906Z,1.60
2022-10-20T07:19:21.187Z,1.15
2022-10-20T07:22:23.791Z,1.48
2022-10-20T07:25:26.659Z,1.10
2022-10-20T07:28:29.712Z,1.10
2022-10-20T07:31:36.319Z,1.20
2022-10-20T07:34:38.825Z,1.40
2022-10-20T07:37:41.757Z,1.50
2022-10-20T07:40:44.422Z,1.40
2022-10-20T07:43:47.419Z,1.55
2022-10-20T07:46:50.273Z,1.35
2022-10-20T07:49:53.266Z,1.50
2022-10-20T07:52:55.832Z,1.50
2022-10-20T07:55:58.701Z,1.47
2022-10-20T07:59:01.664Z,1.30
2022-10-20T08:02:04.856Z,1.30
2022-10-20T08:05:08.888Z,1.45
2022-10-20T08:08:11.719Z,1.50
2022-10-20T08:11:15.540Z,1.30
2022-10-20T08:14:18.269Z,0.93
2022-10-20T08:17:21.103Z,1.17
2022-10-20T08:20:28.738Z,1.25
2022-10-20T08:23:31.714Z,1.40
2022-10-20T08:26:34.852Z,1.60
2022-10-20T08:29:38.101Z,1.70
2022-10-20T08:32:40.763Z,1.30
2022-10-20T08:35:43.687Z,1.40
2022-10-20T08:38:46.286Z,1.60
2022-10-20T08:45:18.838Z,1.75
2022-10-20T08:48:25.042Z,1.48
2022-10-20T08:51:32.619Z,1.60
2022-10-20T08:54:35.587Z,1.60
2022-10-20T08:57:38.561Z,1.60
2022-10-20T09:00:43.996Z,1.60
2022-10-20T09:03:51.418Z,1.70
2022-10-20T09:06:59.495Z,1.52
2022-10-20T09:10:26.877Z,1.60
2022-10-20T09:13:31.849Z,1.63
2022-10-20T09:16:58.557Z,1.40
2022-10-20T09:20:01.993Z,1.90
2022-10-20T09:23:16.679Z,1.80
2022-10-20T09:26:54.120Z,1.60
2022-10-20T09:29:57.521Z,1.70
2022-10-20T09:33:02.214Z,1.30
2022-10-20T09:36:12.902Z,1.30
2022-10-20T09:39:24.904Z,1.70
2022-10-20T09:42:34.430Z,1.48
2022-10-20T09:45:39.756Z,1.70
2022-10-20T09:48:47.915Z,1.70
2022-10-20T09:55:03.949Z,1.73
2022-10-20T09:58:08.108Z,1.73
2022-10-20T10:01:15.858Z,1.60
2022-10-20T10:04:31.032Z,2.00
2022-10-20T10:07:33.578Z,1.83
2022-10-20T10:10:37.906Z,1.67
2022-10-20T10:13:44.529Z,1.85
2022-10-20T10:16:47.385Z,1.73
2022-10-20T10:19:52.556Z,2.30
2022-10-20T10:23:27.285Z,2.12
2022-10-20T10:26:45.554Z,2.08
2022-10-20T10:29:50.921Z,1.80
2022-10-20T10:32:53.792Z,1.43
2022-10-20T10:35:57.403Z,1.70
2022-10-20T10:39:00.419Z,1.90
2022-10-20T10:42:03.429Z,1.50
2022-10-20T10:45:23.682Z,1.90
2022-10-20T10:48:47.930Z,1.60
2022-10-20T10:51:57.523Z,1.55
2022-10-20T10:55:06.612Z,1.80
2022-10-20T10:58:16.049Z,1.45
2022-10-20T11:01:45.120Z,1.80
2022-10-20T11:05:13.975Z,1.80
2022-10-20T11:08:28.879Z,2.10
2022-10-20T11:11:50.471Z,1.62
2022-10-20T11:15:14.346Z,1.80
2022-10-20T11:18:46.223Z,2.10
2022-10-20T11:22:02.018Z,2.17
2022-10-20T11:25:22.693Z,2.20
2022-10-20T11:28:46.776Z,1.90
2022-10-20T11:32:15.880Z,1.67
2022-10-20T11:35:25.034Z,1.60
2022-10-20T11:38:36.236Z,1.90
2022-10-20T11:41:49.749Z,1.95
2022-10-20T11:44:54.394Z,2.28
2022-10-20T11:48:12.573Z,2.08
2022-10-20T11:51:19.747Z,1.65
2022-10-20T11:54:48.884Z,1.70
2022-10-20T11:58:12.814Z,1.80
2022-10-20T12:01:18.888Z,1.67
2022-10-20T12:04:40.903Z,1.70
2022-10-20T12:08:30.288Z,1.45
2022-10-20T12:11:51.888Z,1.60
2022-10-20T12:15:00.349Z,1.90
2022-10-20T12:18:34.726Z,1.80
2022-10-20T12:21:57.885Z,1.95
2022-10-20T12:25:00.626Z,1.80
2022-10-20T12:28:22.584Z,1.90
2022-10-20T12:31:26.120Z,1.73
2022-10-20T12:34:40.132Z,1.80
2022-10-20T12:37:44.975Z,1.75
2022-10-20T12:40:59.116Z,1.40
2022-10-20T12:44:04.672Z,1.67
2022-10-20T12:47:08.335Z,1.65
2022-10-20T12:50:35.177Z,1.90
2022-10-20T12:53:38.267Z,1.90
2022-10-20T12:56:42.109Z,1.75
2022-10-20T12:59:44.820Z,1.67
2022-10-20T13:02:58.809Z,1.60
2022-10-20T13:06:02.113Z,1.37
2022-10-20T13:09:07.709Z,1.50
2022-10-20T13:12:29.033Z,1.60
2022-10-20T13:15:35.161Z,1.37
2022-10-20T13:18:42.763Z,1.70
2022-10-20T13:21:49.427Z,1.70
2022-10-20T13:24:55.959Z,1.77
2022-10-20T13:28:18.258Z,1.80
2022-10-20T13:31:21.056Z,2.37
2022-10-20T13:34:33.942Z,1.92
2022-10-20T13:38:02.967Z,1.80
2022-10-20T13:41:40.904Z,2.28
2022-10-20T13:44:52.920Z,2.00
2022-10-20T13:48:16.831Z,1.70
2022-10-20T13:51:24.743Z,1.80
2022-10-20T13:54:31.827Z,2.05
2022-10-20T13:57:35.653Z,1.52
2022-10-20T14:00:39.695Z,1.70
2022-10-20T14:03:44.591Z,1.70
2022-10-20T14:06:47.269Z,1.23
2022-10-20T14:09:57.257Z,1.55
2022-10-20T14:13:01.188Z,1.50
2022-10-20T14:16:05.939Z,1.70
2022-10-20T14:19:12.855Z,1.33
2022-10-20T14:22:15.562Z,1.80
2022-10-20T14:25:18.204Z,1.45
2022-10-20T14:28:21.312Z,1.50
2022-10-20T14:31:24.966Z,1.45
2022-10-20T14:34:29.451Z,1.40
2022-10-20T14:37:41.092Z,1.60
2022-10-20T14:40:55.566Z,2.20
2022-10-20T14:44:05.098Z,1.75
2022-10-20T14:47:10.906Z,1.50
2022-10-20T14:50:44.389Z,2.13
2022-10-20T14:53:47.385Z,2.20
2022-10-20T14:56:52.360Z,1.10
2022-10-20T15:00:03.932Z,1.50
2022-10-20T15:03:09.192Z,1.50
2022-10-20T15:06:17.671Z,1.60
2022-10-20T15:09:30.489Z,1.40
2022-10-20T15:12:39.392Z,1.60
2022-10-20T15:15:42.327Z,1.33
2022-10-20T15:18:46.474Z,1.30
2022-10-20T15:21:50.544Z,1.40
2022-10-20T15:24:53.490Z,1.83
2022-10-20T15:27:56.525Z,1.40
2022-10-20T15:31:04.315Z,2.17
2022-10-20T15:34:09.871Z,1.55
2022-10-20T15:37:12.783Z,1.57
2022-10-20T15:40:21.051Z,1.50
2022-10-20T15:43:24.024Z,1.83
2022-10-20T15:46:26.744Z,2.10
2022-10-20T15:49:29.601Z,1.77
2022-10-20T15:52:32.470Z,1.73
2022-10-20T15:55:37.491Z,2.28
2022-10-20T15:58:40.144Z,3.62
2022-10-20T16:01:43.058Z,4.57
2022-10-20T16:04:45.964Z,4.78
2022-10-20T16:07:48.521Z,3.00
2022-10-20T16:10:57.827Z,3.00
2022-10-20T16:14:20.204Z,2.00
2022-10-20T16:17:42.936Z,1.73
2022-10-20T16:21:06.312Z,1.80
2022-10-20T16:24:28.997Z,1.77
2022-10-20T16:27:51.354Z,1.48
2022-10-20T16:31:16.083Z,2.05
2022-10-20T16:34:18.597Z,1.75
2022-10-20T16:37:21.930Z,1.65
2022-10-20T16:40:24.548Z,1.43
2022-10-20T16:43:28.048Z,1.42
2022-10-20T16:46:30.628Z,1.67
2022-10-20T16:49:34.327Z,1.33
2022-10-20T16:52:37.117Z,2.25
2022-10-20T16:55:40.088Z,2.30
2022-10-20T16:58:42.653Z,3.15
2022-10-20T17:01:45.851Z,4.12
2022-10-20T17:04:49.779Z,4.05
2022-10-20T17:07:52.668Z,5.70
2022-10-20T17:10:57.376Z,6.10
2022-10-20T17:14:00.591Z,6.55
2022-10-20T17:17:03.380Z,7.00
2022-10-20T17:20:06.965Z,4.90
2022-10-20T17:23:09.626Z,3.70
2022-10-20T17:26:18.424Z,3.57
2022-10-20T17:29:25.151Z,3.50
2022-10-20T17:32:29.007Z,3.70
2022-10-20T17:35:31.938Z,4.07
2022-10-20T17:38:35.514Z,4.00
2022-10-20T17:41:38.349Z,4.20
2022-10-20T17:44:41.342Z,4.22
2022-10-20T17:47:44.148Z,3.65
2022-10-20T17:50:47.346Z,3.85
2022-10-20T17:53:51.729Z,3.40
2022-10-20T17:56:54.911Z,3.23
2022-10-20T18:00:00.448Z,3.15
2022-10-20T18:03:08.412Z,2.65
2022-10-20T18:06:17.448Z,2.67
2022-10-20T18:09:20.290Z,2.75
2022-10-20T18:12:23.309Z,2.53
2022-10-20T18:15:26.154Z,2.03
2022-10-20T18:18:29.176Z,1.65
2022-10-20T18:21:32.739Z,2.50
2022-10-20T18:24:37.208Z,2.58
2022-10-20T18:27:40.048Z,2.77
2022-10-20T18:30:43.609Z,2.67
2022-10-20T18:33:47.256Z,2.65
2022-10-20T18:36:51.289Z,2.50
2022-10-20T18:39:54.052Z,3.12
2022-10-20T18:42:56.902Z,2.40
2022-10-20T18:46:01.203Z,2.25
2022-10-20T18:49:06.741Z,2.20
2022-10-20T18:52:09.576Z,2.25
2022-10-20T18:55:12.874Z,2.47
2022-10-20T18:58:15.797Z,2.03
2022-10-20T19:01:21.269Z,2.60
2022-10-20T19:04:24.216Z,2.50
2022-10-20T19:07:27.070Z,2.42
2022-10-20T19:10:29.960Z,2.42
2022-10-20T19:13:35.954Z,2.23
2022-10-20T19:16:39.935Z,2.25
2022-10-20T19:19:44.645Z,2.03
2022-10-20T19:22:47.448Z,1.95
2022-10-20T19:26:13.629Z,2.33
2022-10-20T19:29:18.214Z,2.73
2022-10-20T19:32:22.689Z,2.53
2022-10-20T19:35:25.752Z,2.28
2022-10-20T19:38:28.963Z,3.15
2022-10-20T19:41:34.502Z,2.70
2022-10-20T19:44:37.530Z,2.40
2022-10-20T19:47:40.485Z,2.10
2022-10-20T19:50:43.550Z,2.30
2022-10-20T19:53:47.704Z,2.00
2022-10-20T19:56:50.973Z,1.85
2022-10-20T19:59:54.890Z,2.10
2022-10-20T20:02:57.851Z,2.40
2022-10-20T20:06:03.243Z,2.35
2022-10-20T20:09:08.217Z,3.10
2022-10-20T20:12:11.239Z,3.05
2022-10-20T20:15:14.097Z,3.60
2022-10-20T20:18:17.680Z,4.70
2022-10-20T20:21:21.424Z,4.95
2022-10-20T20:24:24.518Z,5.68
2022-10-20T20:27:27.407Z,5.18
2022-10-20T20:30:30.489Z,5.03
2022-10-20T20:33:34.029Z,5.32
2022-10-20T20:36:37.078Z,5.80
2022-10-20T20:39:39.776Z,4.47
2022-10-20T20:42:42.706Z,4.22
2022-10-20T20:45:45.351Z,3.90
2022-10-20T20:48:48.369Z,3.60
2022-10-20T20:51:51.016Z,4.07
2022-10-20T20:54:54.051Z,3.62
2022-10-20T20:57:56.549Z,4.47
2022-10-20T21:01:02.457Z,4.17
2022-10-20T21:04:10.191Z,4.28
2022-10-20T21:07:13.151Z,4.12
2022-10-20T21:10:15.833Z,4.72
2022-10-20T21:13:18.654Z,4.20
2022-10-20T21:16:35.673Z,4.80
2022-10-20T21:19:38.476Z,4.85
2022-10-20T21:22:41.036Z,4.43
2022-10-20T21:25:46.217Z,4.30
2022-10-20T21:28:49.516Z,4.25
2022-10-20T21:31:52.584Z,4.00
2022-10-20T21:34:57.911Z,4.35
2022-10-20T21:38:00.881Z,4.45
2022-10-20T21:41:15.503Z,4.68
2022-10-20T21:44:18.427Z,4.85
2022-10-20T21:47:20.994Z,4.60
2022-10-20T21:50:23.976Z,4.82
2022-10-20T21:53:26.425Z,4.30
2022-10-20T21:56:29.773Z,4.22
2022-10-20T21:59:32.336Z,4.20
2022-10-20T22:02:35.651Z,4.50
2022-10-20T22:05:38.620Z,5.12
2022-10-20T22:08:43.980Z,5.15
2022-10-20T22:11:50.905Z,5.00
2022-10-20T22:14:53.438Z,5.32
2022-10-20T22:17:56.410Z,5.73
2022-10-20T22:21:09.817Z,4.95
2022-10-20T22:24:16.329Z,5.50
2022-10-20T22:27:31.340Z,4.90
2022-10-20T22:30:41.691Z,4.95
2022-10-20T22:33:44.293Z,4.53
2022-10-20T22:36:47.284Z,4.97
2022-10-20T22:39:50.043Z,5.07
2022-10-20T22:42:52.905Z,4.68
2022-10-20T22:45:55.382Z,4.90
2022-10-20T22:52:01.690Z,5.12
2022-10-20T22:55:06.923Z,5.07
2022-10-20T22:58:09.459Z,5.15
2022-10-20T23:01:18.752Z,4.30
2022-10-20T23:04:21.423Z,4.53
2022-10-20T23:07:24.527Z,4.32
2022-10-20T23:10:27.454Z,3.65
2022-10-20T23:13:30.304Z,4.43
2022-10-20T23:16:32.816Z,4.30
2022-10-20T23:19:35.687Z,4.77
2022-10-20T23:22:38.212Z,4.75
2022-10-20T23:25:42.309Z,5.55
2022-10-20T23:28:44.899Z,5.97
2022-10-20T23:31:47.724Z,5.93
2022-10-20T23:34:50.196Z,5.90
2022-10-20T23:37:52.980Z,6.28
2022-10-20T23:40:55.761Z,6.43
2022-10-20T23:43:58.630Z,6.18
2022-10-20T23:47:01.183Z,6.47
2022-10-20T23:50:04.655Z,5.90
2022-10-20T23:53:07.228Z,5.87
2022-10-20T23:56:10.043Z,5.68
2022-10-20T23:59:12.583Z,6.60
